Minsk, Belarus
Current Conditions -  °F | °C
As of 9:00 AM on Friday 24 Oct 2014 (Local Time) from UMMM Reporting Station
Clear Clear  
Wind Chill:   Ceiling: Unl
Heat Index: 19°   Visibility: 6mi
Dew Point: 10°   Wind: 11mph
Humidity: 68%   Direction: 80°E
Pressure: 30.56"   Gusts: NA
Location:  53.91°N, 27.55°E
Report Text: UMMM 240700Z 08005MPS CAVOK M07/M12 Q1035 R12/CLRD60 NOSIG RMKQFE755
Loading
Personal Weather Stations






























Interactive Weather Map New forecast layout! Learn more

10-Day Weather Forecast

Advertisements
Track Severe Weather on mobile